Time;durP1;ratioP1;P1;durP2;ratioP2;P2;SDS_P1;SDS_P2;PMS_P1;PMS_P2;Temp;Humidity;BMP_temperature;BMP_pressure;BME280_temperature;BME280_humidity;BME280_pressure;Samples;Min_cycle;Max_cycle;Signal;HPM_P1;HPM_P2
2023/01/20 00:00:20;;;;;;;;;;;0.00;99.90;;;-1.15;100.00;94858.34;10529132;28;2140;-73
2023/01/20 00:05:22;;;;;;;;;;;0.00;99.90;;;-1.03;100.00;94862.88;10526042;28;2163;-73
2023/01/20 00:10:25;;;;;;;;;;;0.10;99.90;;;-1.09;100.00;94870.66;10528764;28;2071;-73
2023/01/20 00:15:28;;;;;;;;;;;0.30;99.90;;;-1.03;100.00;94862.88;10531416;28;2110;-73
2023/01/20 00:20:31;;;;;;;;;;;0.00;99.90;;;-1.12;100.00;94871.13;10530011;28;2101;-73
2023/01/20 00:25:33;;;;;;;;;;;0.00;99.90;;;-1.06;100.00;94876.53;10534341;28;2221;-73
2023/01/20 00:30:36;;;;;;;;;;;0.00;99.90;;;-1.14;100.00;94878.44;10531420;28;2302;-72
2023/01/20 00:35:38;;;;;;;;;;;0.00;99.90;;;-1.10;100.00;94874.31;10532438;28;2060;-73
2023/01/20 00:40:41;;;;;;;;;;;0.00;99.90;;;-1.09;100.00;94885.69;10525955;28;2159;-76
2023/01/20 00:45:44;;;;;;;;;;;0.00;99.90;;;-1.06;100.00;94879.16;10524256;28;2081;-72
2023/01/20 00:50:46;;;;;;;;;;;0.00;99.90;;;-1.02;100.00;94880.31;10527221;28;2100;-72
2023/01/20 00:55:49;;;;;;;;;;;0.10;99.90;;;-1.07;100.00;94890.75;10528239;28;2200;-73
2023/01/20 01:00:52;;;;;;;;;;;0.10;99.90;;;-1.05;100.00;94891.31;10521662;28;1997;-73
2023/01/20 01:05:54;;;;;;;;;;;0.10;99.90;;;-1.06;100.00;94889.72;10532349;28;2157;-72
2023/01/20 01:10:57;;;;;;;;;;;0.10;99.90;;;-0.99;100.00;94895.72;10520151;28;1970;-73
2023/01/20 01:16:00;;;;;;;;;;;0.10;99.90;;;-0.89;100.00;94898.59;10527847;28;2251;-72
2023/01/20 01:21:03;;;;;;;;;;;0.10;99.90;;;-1.01;100.00;94903.84;10518966;28;2050;-72
2023/01/20 01:26:05;;;;;;;;;;;0.10;99.90;;;-1.01;100.00;94903.06;10524839;28;2438;-73
2023/01/20 01:31:08;;;;;;;;;;;0.20;99.90;;;-0.99;100.00;94906.25;10530590;28;2100;-73
2023/01/20 01:36:11;;;;;;;;;;;0.10;99.90;;;-1.04;100.00;94916.66;10524554;28;2024;-73
2023/01/20 01:41:13;;;;;;;;;;;0.10;99.90;;;-1.09;100.00;94920.75;10524913;28;2141;-73
2023/01/20 01:46:16;;;;;;;;;;;0.00;99.90;;;-1.13;100.00;94914.34;10517363;28;2010;-73
2023/01/20 01:51:19;;;;;;;;;;;-0.10;99.90;;;-1.23;100.00;94921.97;10521960;28;2170;-72
2023/01/20 01:56:22;;;;;;;;;;;-0.10;99.90;;;-1.27;100.00;94918.16;10528707;28;2053;-73
2023/01/20 02:01:24;;;;;;;;;;;-0.40;99.90;;;-1.29;100.00;94920.19;10523385;28;2140;-73
2023/01/20 02:06:27;;;;;;;;;;;-0.20;99.90;;;-1.32;100.00;94920.66;10516483;28;2057;-73
2023/01/20 02:11:30;;;;;;;;;;;-0.10;99.90;;;-1.39;100.00;94925.19;10521985;28;2275;-73
2023/01/20 02:16:33;;;;;;;;;;;-0.20;99.90;;;-1.48;100.00;94926.50;10522855;28;2124;-73
2023/01/20 02:21:36;;;;;;;;;;;-0.30;99.90;;;-1.59;100.00;94927.22;10513826;28;2044;-72
2023/01/20 02:26:39;;;;;;;;;;;-0.40;99.90;;;-1.67;100.00;94930.94;10521075;28;2105;-73
2023/01/20 02:31:41;;;;;;;;;;;-0.40;99.90;;;-1.73;100.00;94930.00;10524684;28;2040;-73
2023/01/20 02:36:44;;;;;;;;;;;-0.50;99.90;;;-1.76;100.00;94934.91;10518393;28;2026;-73
2023/01/20 02:41:47;;;;;;;;;;;-0.60;99.90;;;-1.78;100.00;94931.66;10518710;28;2134;-72
2023/01/20 02:46:49;;;;;;;;;;;-0.60;99.90;;;-1.68;100.00;94940.69;10519498;28;2062;-73
2023/01/20 02:51:52;;;;;;;;;;;-0.60;99.90;;;-1.58;100.00;94942.84;10522607;28;2057;-73
2023/01/20 02:56:55;;;;;;;;;;;-0.60;99.90;;;-1.47;100.00;94946.56;10521782;28;2050;-72
2023/01/20 03:02:01;;;;;;;;;;;-0.50;99.90;;;-1.37;100.00;94944.22;10523629;28;2113;-73
2023/01/20 03:07:04;;;;;;;;;;;-0.40;99.90;;;-1.33;100.00;94955.97;10524249;28;2018;-76
2023/01/20 03:12:06;;;;;;;;;;;-0.30;99.90;;;-1.29;100.00;94959.75;10520009;28;2043;-78
2023/01/20 03:17:09;;;;;;;;;;;-0.30;99.90;;;-1.26;100.00;94954.06;10526062;28;2132;-74
2023/01/20 03:22:11;;;;;;;;;;;-0.30;99.90;;;-1.22;100.00;94960.47;10525287;28;2048;-72
2023/01/20 03:27:14;;;;;;;;;;;-0.20;99.90;;;-1.14;100.00;94962.84;10526617;28;2076;-73
2023/01/20 03:32:17;;;;;;;;;;;-0.20;99.90;;;-1.18;100.00;94966.94;10528126;28;2100;-72
2023/01/20 03:37:19;;;;;;;;;;;-0.20;99.90;;;-1.21;100.00;94967.38;10527002;28;2050;-73
2023/01/20 03:42:22;;;;;;;;;;;-0.20;99.90;;;-1.15;100.00;94979.66;10511189;28;2033;-72
2023/01/20 03:47:25;;;;;;;;;;;-0.10;99.90;;;-1.13;100.00;94985.56;10533273;28;2101;-74
2023/01/20 03:52:27;;;;;;;;;;;-0.10;99.90;;;-1.03;100.00;94989.50;10529154;28;2109;-73
2023/01/20 03:57:50;;;;;;;;;;;-0.10;99.90;;;-1.04;100.00;94995.81;10526162;28;2062;-73
2023/01/20 04:02:52;;;;;;;;;;;0.00;99.90;;;-0.98;100.00;94992.28;10525390;28;2041;-73
2023/01/20 04:07:55;;;;;;;;;;;0.00;99.90;;;-0.97;100.00;94997.34;10527684;28;2096;-73
2023/01/20 04:12:57;;;;;;;;;;;0.00;99.90;;;-1.04;100.00;95003.72;10531094;28;2262;-73
2023/01/20 04:18:00;;;;;;;;;;;0.10;99.90;;;-0.97;100.00;95007.09;10533535;28;2354;-73
2023/01/20 04:23:03;;;;;;;;;;;0.00;99.90;;;-1.00;100.00;95020.72;10529606;28;2094;-72
2023/01/20 04:28:05;;;;;;;;;;;0.00;99.90;;;-1.03;100.00;95018.50;10529583;28;2077;-72
2023/01/20 04:33:08;;;;;;;;;;;0.00;99.90;;;-1.13;100.00;95027.75;10509433;28;2099;-72
2023/01/20 04:38:11;;;;;;;;;;;-0.10;99.90;;;-1.21;100.00;95030.69;10536911;28;2081;-73
2023/01/20 04:43:14;;;;;;;;;;;-0.10;99.90;;;-1.11;100.00;95049.44;10526471;28;2018;-72
2023/01/20 04:48:17;;;;;;;;;;;-0.10;99.90;;;-1.16;100.00;95054.53;10518889;28;2074;-71
2023/01/20 04:53:19;;;;;;;;;;;-0.20;99.90;;;-1.10;100.00;95052.88;10524051;28;2021;-71
2023/01/20 04:58:22;;;;;;;;;;;0.10;99.90;;;-1.17;100.00;95052.94;10525832;28;1990;-73
2023/01/20 05:03:25;;;;;;;;;;;-0.20;99.90;;;-1.28;100.00;95060.75;10527884;28;2021;-75
2023/01/20 05:08:28;;;;;;;;;;;-0.20;99.90;;;-1.35;100.00;95071.34;10527717;28;2032;-72
2023/01/20 05:13:30;;;;;;;;;;;-0.30;99.90;;;-1.36;100.00;95075.81;10523762;28;2100;-73
2023/01/20 05:18:33;;;;;;;;;;;-0.30;99.90;;;-1.38;100.00;95077.06;10522199;28;2311;-71
2023/01/20 05:23:36;;;;;;;;;;;-0.30;99.90;;;-1.42;100.00;95097.78;10525648;28;2049;-72
2023/01/20 05:28:39;;;;;;;;;;;-0.40;99.90;;;-1.36;100.00;95096.91;10525716;28;2050;-71
2023/01/20 05:33:41;;;;;;;;;;;-0.30;99.90;;;-1.35;100.00;95097.72;10521816;28;2169;-73
2023/01/20 05:38:44;;;;;;;;;;;-0.30;99.90;;;-1.44;100.00;95099.03;10528208;28;2115;-71
2023/01/20 05:43:46;;;;;;;;;;;-0.40;99.90;;;-1.42;100.00;95107.53;10521616;28;2004;-73
2023/01/20 05:48:49;;;;;;;;;;;-0.30;99.90;;;-1.42;100.00;95112.78;10505238;28;2073;-73
2023/01/20 05:53:52;;;;;;;;;;;-0.40;99.90;;;-1.56;100.00;95116.56;10515508;28;2417;-72
2023/01/20 05:58:55;;;;;;;;;;;-0.40;99.90;;;-1.74;100.00;95125.19;10524595;28;2073;-74
2023/01/20 06:03:58;;;;;;;;;;;-0.60;99.90;;;-1.96;100.00;95137.91;10524414;28;2095;-72
2023/01/20 06:09:00;;;;;;;;;;;-0.90;99.90;;;-2.10;100.00;95142.44;10522601;28;2069;-73
2023/01/20 06:14:03;;;;;;;;;;;-1.00;99.90;;;-2.11;100.00;95137.34;10522328;28;2113;-72
2023/01/20 06:19:06;;;;;;;;;;;;;;;-2.25;100.00;95139.25;10522580;28;2070;-73
2023/01/20 06:24:09;;;;;;;;;;;;;;;-2.27;100.00;95146.56;10522078;28;2073;-73
2023/01/20 06:29:12;;;;;;;;;;;;;;;-2.27;100.00;95151.81;10519888;28;2114;-74
2023/01/20 06:34:15;;;;;;;;;;;;;;;-2.29;100.00;95165.19;10521633;28;2112;-73
2023/01/20 06:39:19;;;;;;;;;;;;;;;-2.27;100.00;95163.16;10527542;28;2061;-73
2023/01/20 06:44:22;;;;;;;;;;;;;;;-2.22;100.00;95170.44;10513302;28;2032;-73
2023/01/20 06:49:25;;;;;;;;;;;;;;;-2.21;100.00;95186.00;10522872;28;2076;-75
2023/01/20 06:54:28;;;;;;;;;;;;;;;-2.21;100.00;95188.66;10517916;28;2108;-73
2023/01/20 06:59:31;;;;;;;;;;;;;;;-2.23;100.00;95192.50;10521652;28;2125;-79
2023/01/20 07:04:49;;;;;;;;;;;;;;;-2.08;100.00;95202.78;10486065;28;2139;-72
2023/01/20 07:09:53;;;;;;;;;;;;;;;-2.01;100.00;95203.56;10526699;28;2046;-72
2023/01/20 07:14:56;;;;;;;;;;;;;;;-2.08;100.00;95213.31;10517390;28;2122;-76
2023/01/20 07:19:59;;;;;;;;;;;;;;;-2.03;100.00;95219.56;10520372;28;2076;-78
2023/01/20 07:25:02;;;;;;;;;;;;;;;-2.00;100.00;95218.34;10523636;28;2065;-78
2023/01/20 07:30:05;;;;;;;;;;;;;;;-1.93;100.00;95224.38;10522400;28;2077;-76
2023/01/20 07:35:08;;;;;;;;;;;;;;;-1.89;100.00;95233.50;10534639;28;2122;-81
2023/01/20 07:40:11;;;;;;;;;;;-1.60;99.90;;;-1.84;100.00;95246.84;10529886;28;1982;-79
2023/01/20 07:45:15;;;;;;;;;;;;;;;-1.72;100.00;95255.72;10526020;28;2097;-78
2023/01/20 07:50:18;;;;;;;;;;;;;;;-1.52;100.00;95262.72;10523239;28;2022;-75
2023/01/20 07:55:21;;;;;;;;;;;;;;;-1.29;100.00;95265.63;10523389;28;2051;-73
2023/01/20 08:00:27;;;;;;;;;;;;;;;-1.12;100.00;95266.75;10521568;28;2063;-81
2023/01/20 08:05:30;;;;;;;;;;;;;;;-1.02;100.00;95265.44;10508342;28;2136;-75
2023/01/20 08:10:33;;;;;;;;;;;;;;;-1.01;100.00;95267.09;10528635;28;2076;-72
2023/01/20 08:15:37;;;;;;;;;;;;;;;-0.96;100.00;95267.22;10531948;28;2038;-72
2023/01/20 08:20:40;;;;;;;;;;;;;;;-0.82;100.00;95276.69;10528464;28;2313;-74
2023/01/20 08:25:43;;;;;;;;;;;;;;;-0.75;100.00;95288.00;10528185;28;2117;-74
2023/01/20 08:30:47;;;;;;;;;;;;;;;-0.53;100.00;95287.63;10503266;28;2169;-73
2023/01/20 08:35:50;;;;;;;;;;;;;;;-0.38;100.00;95285.44;10527115;28;2060;-75
2023/01/20 08:40:53;;;;;;;;;;;;;;;-0.53;100.00;95295.53;10532591;28;2036;-73
2023/01/20 08:45:56;;;;;;;;;;;;;;;-0.65;100.00;95298.06;10525697;28;2426;-74
2023/01/20 08:50:59;;;;;;;;;;;;;;;-0.56;100.00;95308.16;10510330;28;2066;-73
2023/01/20 08:56:03;;;;;;;;;;;;;;;-0.29;100.00;95315.84;10520989;28;2093;-73
2023/01/20 09:01:06;;;;;;;;;;;;;;;-0.01;100.00;95325.94;10532182;28;2060;-73
2023/01/20 09:06:09;;;;;;;;;;;;;;;-0.21;100.00;95326.13;10526092;28;2391;-74
2023/01/20 09:11:12;;;;;;;;;;;;;;;-0.02;100.00;95335.69;10530521;28;2095;-74
2023/01/20 09:16:15;;;;;;;;;;;;;;;0.05;100.00;95340.13;10536073;28;2048;-75
2023/01/20 09:21:18;;;;;;;;;;;;;;;0.06;100.00;95344.38;10529670;28;2195;-75
2023/01/20 09:26:21;;;;;;;;;;;;;;;0.17;100.00;95343.66;10532605;28;2108;-72
2023/01/20 09:31:37;;;;;;;;;;;;;;;0.18;100.00;95358.47;10528042;28;2017;-71
2023/01/20 09:36:41;;;;;;;;;;;;;;;0.23;100.00;95361.28;10526835;28;2199;-72
2023/01/20 09:47:21;;;;;;;;;;;1.10;99.90;;;0.27;100.00;95365.13;10525097;28;2072;-74
2023/01/20 09:57:45;;;;;;;;;;;1.30;99.90;;;0.45;100.00;95378.34;10524411;28;2087;-73
2023/01/20 10:02:47;;;;;;;;;;;1.20;99.90;;;0.50;100.00;95369.75;10526432;28;2094;-73
2023/01/20 10:07:50;;;;;;;;;;;1.30;99.90;;;0.79;100.00;95373.50;10519186;28;2079;-73
2023/01/20 10:12:53;;;;;;;;;;;1.50;99.90;;;0.92;100.00;95373.31;10509001;28;2105;-74
2023/01/20 10:17:58;;;;;;;;;;;;;;;1.05;100.00;95375.81;10520995;28;2061;-73
2023/01/20 10:23:01;;;;;;;;;;;1.90;99.90;;;0.57;100.00;95375.75;10518245;28;2120;-75
2023/01/20 10:28:04;;;;;;;;;;;1.70;99.90;;;0.61;100.00;95373.50;10513380;28;1991;-74
2023/01/20 10:33:07;;;;;;;;;;;1.50;99.90;;;0.47;100.00;95389.50;10524972;28;2032;-77
2023/01/20 10:38:09;;;;;;;;;;;1.30;99.90;;;0.62;100.00;95377.75;10519881;28;2118;-76
2023/01/20 10:43:12;;;;;;;;;;;1.30;99.90;;;0.85;100.00;95377.91;10523747;28;2204;-75
2023/01/20 10:48:15;;;;;;;;;;;1.40;99.90;;;0.90;100.00;95380.69;10530925;28;2089;-76
2023/01/20 10:53:17;;;;;;;;;;;1.70;99.90;;;1.01;100.00;95382.56;10518950;28;1975;-74
2023/01/20 10:58:20;;;;;;;;;;;1.80;99.90;;;0.92;100.00;95381.25;10521898;28;2048;-74
2023/01/20 11:03:23;;;;;;;;;;;1.90;99.90;;;1.08;100.00;95385.97;10515580;28;2042;-74
2023/01/20 11:08:25;;;;;;;;;;;1.90;99.90;;;1.31;100.00;95381.78;10514550;28;2084;-73
2023/01/20 11:13:28;;;;;;;;;;;2.10;99.90;;;1.26;100.00;95377.16;10514043;28;2073;-73
2023/01/20 11:18:31;;;;;;;;;;;2.10;99.90;;;1.37;100.00;95388.81;10520119;28;2078;-74
2023/01/20 11:23:36;;;;;;;;;;;;;;;1.52;100.00;95383.09;10522093;28;2014;-73
2023/01/20 11:28:39;;;;;;;;;;;2.30;99.90;;;1.37;100.00;95383.53;10522555;28;2350;-73
2023/01/20 11:33:41;;;;;;;;;;;2.30;99.90;;;1.57;100.00;95380.59;10519065;28;2060;-75
2023/01/20 11:38:44;;;;;;;;;;;2.30;99.90;;;1.42;100.00;95388.16;10524479;28;2125;-75
2023/01/20 11:43:47;;;;;;;;;;;2.50;99.90;;;1.59;100.00;95389.09;10529535;28;2029;-74
2023/01/20 11:48:49;;;;;;;;;;;2.70;99.90;;;1.35;100.00;95383.75;10528135;28;2081;-74
2023/01/20 11:53:52;;;;;;;;;;;2.40;99.90;;;1.41;100.00;95386.53;10521159;28;2337;-74
2023/01/20 11:58:54;;;;;;;;;;;2.50;99.90;;;1.62;100.00;95386.00;10525328;28;2310;-75
2023/01/20 12:03:57;;;;;;;;;;;2.50;99.90;;;1.87;100.00;95380.53;10529894;28;2276;-75
2023/01/20 12:09:00;;;;;;;;;;;2.70;99.90;;;2.12;100.00;95383.78;10534430;28;2339;-73
2023/01/20 12:14:22;;;;;;;;;;;2.80;99.90;;;2.06;100.00;95384.69;10527126;28;2309;-73
2023/01/20 12:19:26;;;;;;;;;;;2.90;99.90;;;1.24;100.00;95387.16;10511555;28;2347;-74
2023/01/20 12:25:06;;;;;;;;;;;2.50;99.90;;;1.72;100.00;95388.09;10527231;28;2339;-72
2023/01/20 12:29:54;;;;;;;;;;;2.50;99.90;;;1.76;100.00;95397.22;10504424;28;2301;-75
2023/01/20 12:34:57;;;;;;;;;;;2.50;99.90;;;1.46;100.00;95398.03;10526487;28;2416;-74
2023/01/20 12:40:00;;;;;;;;;;;2.40;99.90;;;1.69;100.00;95399.97;10527653;28;2543;-74
2023/01/20 12:45:02;;;;;;;;;;;2.40;99.90;;;1.35;100.00;95410.22;10523441;28;2317;-73
2023/01/20 12:50:05;;;;;;;;;;;2.30;99.90;;;0.89;100.00;95410.00;10528154;28;2264;-76
2023/01/20 12:55:08;;;;;;;;;;;2.00;99.90;;;0.93;100.00;95416.47;10527318;28;2297;-78
2023/01/20 13:00:11;;;;;;;;;;;1.80;99.90;;;0.79;100.00;95415.81;10518649;28;2598;-75
2023/01/20 13:05:14;;;;;;;;;;;1.90;99.90;;;0.81;100.00;95416.41;10526848;28;2389;-74
2023/01/20 13:10:18;;;;;;;;;;;1.70;99.90;;;1.00;100.00;95422.50;10527276;28;2426;-76
2023/01/20 13:15:21;;;;;;;;;;;2.00;99.90;;;0.70;100.00;95411.84;10527550;28;2357;-74
2023/01/20 13:20:23;;;;;;;;;;;1.60;99.90;;;0.45;100.00;95425.16;10524234;28;2283;-74
2023/01/20 13:25:26;;;;;;;;;;;1.60;99.90;;;0.35;100.00;95425.63;10523832;28;2237;-73
2023/01/20 13:30:29;;;;;;;;;;;1.40;99.90;;;0.33;100.00;95430.34;10524602;28;2386;-75
2023/01/20 13:35:32;;;;;;;;;;;1.30;99.90;;;0.30;100.00;95433.41;10525667;28;2321;-75
2023/01/20 13:40:35;;;;;;;;;;;1.20;99.90;;;0.15;100.00;95451.44;10521693;28;2282;-73
2023/01/20 13:45:38;;;;;;;;;;;1.20;99.90;;;0.15;100.00;95451.44;10519773;28;2343;-76
2023/01/20 13:50:40;;;;;;;;;;;1.20;99.90;;;0.20;100.00;95454.25;10525985;28;2303;-74
2023/01/20 13:55:43;;;;;;;;;;;1.10;99.90;;;0.17;100.00;95454.66;10525160;28;2645;-72
2023/01/20 14:00:46;;;;;;;;;;;1.10;99.90;;;0.26;100.00;95461.31;10527428;28;2456;-73
2023/01/20 14:05:49;;;;;;;;;;;1.20;99.90;;;0.26;100.00;95467.41;10521614;28;2283;-72
2023/01/20 14:10:51;;;;;;;;;;;1.30;99.90;;;-0.04;100.00;95467.25;10520439;28;2294;-72
2023/01/20 14:15:54;;;;;;;;;;;1.10;99.90;;;-0.12;100.00;95470.16;10524142;28;2341;-75
2023/01/20 14:20:57;;;;;;;;;;;1.00;99.90;;;-0.17;100.00;95475.25;10520943;28;2342;-76
2023/01/20 14:25:59;;;;;;;;;;;0.90;99.90;;;-0.15;100.00;95480.31;10523135;28;2353;-73
2023/01/20 14:31:02;;;;;;;;;;;0.90;99.90;;;-0.01;100.00;95485.28;10515824;28;2420;-74
2023/01/20 14:36:05;;;;;;;;;;;0.90;99.90;;;0.06;100.00;95500.28;10516213;28;2339;-74
2023/01/20 14:41:07;;;;;;;;;;;1.00;99.90;;;-0.13;100.00;95500.22;10527720;28;2347;-72
2023/01/20 14:46:10;;;;;;;;;;;0.90;99.90;;;-0.29;100.00;95503.38;10517525;28;2384;-75
2023/01/20 14:51:13;;;;;;;;;;;0.80;99.90;;;-0.21;100.00;95510.22;10523292;28;2269;-73
2023/01/20 14:56:16;;;;;;;;;;;0.80;99.90;;;-0.29;100.00;95517.38;10505846;28;2657;-74
2023/01/20 15:01:19;;;;;;;;;;;0.70;99.90;;;-0.30;100.00;95528.19;10524658;28;2215;-73
2023/01/20 15:06:22;;;;;;;;;;;0.70;99.90;;;-0.38;100.00;95529.25;10513411;28;2342;-75
2023/01/20 15:11:27;;;;;;;;;;;0.70;99.90;;;-0.53;100.00;95528.69;10516918;28;2323;-74
2023/01/20 15:16:29;;;;;;;;;;;0.60;99.90;;;-0.45;100.00;95532.91;10520713;28;2271;-73
2023/01/20 15:21:32;;;;;;;;;;;0.50;99.90;;;-0.61;100.00;95540.28;10522182;28;2278;-74
2023/01/20 15:26:37;;;;;;;;;;;0.50;99.90;;;-0.51;100.00;95541.66;10528371;28;2365;-73
2023/01/20 15:31:41;;;;;;;;;;;0.50;99.90;;;-0.48;100.00;95551.81;10503580;28;2267;-73
2023/01/20 15:36:44;;;;;;;;;;;1.30;99.90;;;-0.68;100.00;95552.72;10520686;28;2492;-74
2023/01/20 15:41:48;;;;;;;;;;;0.40;99.90;;;-0.88;100.00;95555.41;10523098;28;2364;-74
2023/01/20 15:46:52;;;;;;;;;;;0.60;99.90;;;-0.82;100.00;95559.06;10527268;28;2425;-74
2023/01/20 15:51:58;;;;;;;;;;;0.20;99.90;;;-0.80;100.00;95562.28;10502165;28;2284;-76
2023/01/20 15:57:01;;;;;;;;;;;0.20;99.90;;;-0.78;100.00;95562.09;10528903;28;2284;-74
2023/01/20 16:02:06;;;;;;;;;;;0.20;99.90;;;-0.72;100.00;95572.63;10519986;28;2301;-75
2023/01/20 16:07:09;;;;;;;;;;;0.30;99.90;;;-0.82;100.00;95574.91;10528812;28;2420;-73
2023/01/20 16:12:11;;;;;;;;;;;0.20;99.90;;;-0.90;100.00;95586.47;10519493;28;2364;-70
2023/01/20 16:17:14;;;;;;;;;;;0.10;99.90;;;-0.89;100.00;95588.09;10520890;28;2271;-72
2023/01/20 16:22:17;;;;;;;;;;;0.10;99.90;;;-0.93;100.00;95586.88;10513044;28;2339;-71
2023/01/20 16:27:19;;;;;;;;;;;0.10;99.90;;;-0.86;100.00;95594.78;10521051;28;2337;-71
2023/01/20 16:32:22;;;;;;;;;;;0.20;99.90;;;-0.73;100.00;95586.84;10529688;28;2715;-74
2023/01/20 16:37:25;;;;;;;;;;;0.20;99.90;;;-0.84;100.00;95596.19;10525128;28;2283;-72
2023/01/20 16:42:28;;;;;;;;;;;0.20;99.90;;;-0.84;100.00;95601.47;10534248;28;2442;-73
2023/01/20 16:47:31;;;;;;;;;;;0.10;99.90;;;-0.84;100.00;95601.47;10522772;28;2315;-75
2023/01/20 16:52:33;;;;;;;;;;;0.20;99.90;;;-0.95;100.00;95611.88;10531273;28;2347;-73
2023/01/20 16:57:36;;;;;;;;;;;0.10;99.90;;;-0.92;100.00;95617.53;10531154;28;2338;-72
2023/01/20 17:02:39;;;;;;;;;;;0.10;99.90;;;-0.85;100.00;95617.53;10537069;28;2464;-72
2023/01/20 17:07:41;;;;;;;;;;;0.10;99.90;;;-0.85;100.00;95626.25;10530515;28;2274;-73
2023/01/20 17:12:44;;;;;;;;;;;0.20;99.90;;;-0.98;100.00;95636.00;10536094;28;2252;-73
2023/01/20 17:17:50;;;;;;;;;;;0.10;99.90;;;-0.92;100.00;95638.63;10530060;28;2362;-73
2023/01/20 17:22:54;;;;;;;;;;;0.10;99.90;;;-1.04;100.00;95639.47;10536535;28;2413;-77
2023/01/20 17:27:56;;;;;;;;;;;0.00;99.90;;;-1.05;100.00;95645.75;10543790;27;2291;-73
2023/01/20 17:32:59;;;;;;;;;;;0.00;99.90;;;-1.17;100.00;95650.84;10530689;28;2325;-71
2023/01/20 17:38:02;;;;;;;;;;;0.00;99.90;;;-1.18;100.00;95650.03;10523759;28;2392;-72
2023/01/20 17:43:04;;;;;;;;;;;-0.10;99.90;;;-1.13;100.00;95655.50;10521787;28;2338;-71
2023/01/20 17:48:07;;;;;;;;;;;-0.10;99.90;;;-1.09;100.00;95667.25;10525275;28;2389;-73
2023/01/20 17:53:10;;;;;;;;;;;0.00;99.90;;;-1.15;100.00;95672.53;10523680;28;2296;-72
2023/01/20 17:58:12;;;;;;;;;;;-0.10;99.90;;;-1.26;100.00;95681.88;10527595;28;2342;-77
2023/01/20 18:03:15;;;;;;;;;;;-0.10;99.90;;;-1.01;100.00;95678.66;10522813;28;2252;-74
2023/01/20 18:08:17;;;;;;;;;;;-0.10;99.90;;;-1.25;100.00;95683.50;10531361;28;2701;-75
2023/01/20 18:13:20;;;;;;;;;;;-0.10;99.90;;;-1.21;100.00;95681.25;10520950;28;2366;-71
2023/01/20 18:18:23;;;;;;;;;;;-0.10;99.90;;;-1.10;100.00;95696.50;10525750;28;2302;-70
2023/01/20 18:23:25;;;;;;;;;;;0.00;99.90;;;-1.03;100.00;95691.22;10504911;28;2335;-71
2023/01/20 18:28:28;;;;;;;;;;;-0.10;99.90;;;-1.15;100.00;95699.72;10513908;28;2473;-71
2023/01/20 18:33:33;;;;;;;;;;;0.00;99.90;;;-1.25;100.00;95704.59;10521890;28;2463;-71
2023/01/20 18:38:37;;;;;;;;;;;-0.10;99.90;;;-1.28;100.00;95702.34;10521449;28;2405;-70
2023/01/20 18:43:39;;;;;;;;;;;-0.20;99.90;;;-1.27;100.00;95711.06;10523334;28;2287;-71
2023/01/20 18:48:44;;;;;;;;;;;-0.30;99.90;;;-1.22;100.00;95698.91;10518215;28;2227;-69
2023/01/20 18:53:47;;;;;;;;;;;-0.20;99.90;;;-1.32;100.00;95709.06;10519494;28;2698;-73
2023/01/20 18:58:49;;;;;;;;;;;-0.30;99.90;;;-1.37;100.00;95708.84;10516087;28;2294;-70
2023/01/20 19:03:52;;;;;;;;;;;-0.30;99.90;;;-1.38;100.00;95709.88;10521111;28;2248;-71
2023/01/20 19:08:55;;;;;;;;;;;-0.40;99.90;;;-1.44;100.00;95711.47;10521658;28;2366;-76
2023/01/20 19:13:57;;;;;;;;;;;-0.20;99.90;;;-1.43;100.00;95709.66;10521018;28;2326;-70
2023/01/20 19:19:00;;;;;;;;;;;-0.40;99.90;;;-1.58;100.00;95714.28;10522408;28;2295;-69
2023/01/20 19:24:06;;;;;;;;;;;-0.50;99.90;;;-1.51;100.00;95712.47;10514741;28;2309;-71
2023/01/20 19:29:09;;;;;;;;;;;-0.50;99.90;;;-1.65;100.00;95712.44;10519183;28;2353;-71
2023/01/20 19:34:12;;;;;;;;;;;;;;;-1.61;100.00;95722.56;10520589;28;2294;-70
2023/01/20 19:39:15;;;;;;;;;;;-0.90;99.90;;;-1.70;100.00;95728.03;10518790;28;2558;-69
2023/01/20 19:44:18;;;;;;;;;;;-0.30;99.90;;;-1.67;100.00;95727.63;10518710;28;2302;-72
2023/01/20 19:49:20;;;;;;;;;;;-0.60;99.90;;;-1.71;100.00;95734.31;10504524;28;2445;-70
2023/01/20 19:54:27;;;;;;;;;;;-0.70;99.90;;;-1.68;100.00;95744.44;10518991;28;2345;-72
2023/01/20 19:59:29;;;;;;;;;;;-0.70;99.90;;;-1.74;100.00;95739.16;10514368;28;2266;-71
2023/01/20 20:04:32;;;;;;;;;;;-0.70;99.90;;;-1.70;100.00;95743.84;10533531;28;2422;-72
2023/01/20 20:09:35;;;;;;;;;;;-0.50;99.90;;;-1.71;100.00;95749.31;10529316;28;2456;-71
2023/01/20 20:14:38;;;;;;;;;;;-0.50;99.90;;;-1.74;100.00;95752.34;10528081;28;2369;-72
2023/01/20 20:19:41;;;;;;;;;;;-0.70;99.90;;;-1.87;100.00;95750.47;10531331;28;2313;-71
2023/01/20 20:24:44;;;;;;;;;;;-0.70;99.90;;;-1.85;100.00;95753.72;10531044;28;2345;-72
2023/01/20 20:29:47;;;;;;;;;;;-0.80;99.90;;;-1.87;100.00;95754.94;10532412;28;2741;-71
2023/01/20 20:34:49;;;;;;;;;;;-0.80;99.90;;;-1.90;100.00;95761.41;10533377;28;2384;-73
2023/01/20 20:39:52;;;;;;;;;;;-0.80;99.90;;;-1.91;100.00;95770.28;10529213;28;2349;-73
2023/01/20 20:44:55;;;;;;;;;;;-0.90;99.90;;;-1.88;100.00;95761.22;10530705;28;2303;-73
2023/01/20 20:49:58;;;;;;;;;;;-0.90;99.90;;;-1.97;100.00;95764.00;10529750;28;2328;-74
2023/01/20 20:55:01;;;;;;;;;;;-0.70;99.90;;;-1.93;100.00;95767.88;10530645;28;2411;-74
2023/01/20 21:00:04;;;;;;;;;;;-0.90;99.90;;;-1.94;100.00;95778.59;10524514;28;2366;-73
2023/01/20 21:05:06;;;;;;;;;;;-0.80;99.90;;;-1.98;100.00;95772.09;10512958;28;2479;-70
2023/01/20 21:10:10;;;;;;;;;;;-0.90;99.90;;;-1.94;100.00;95773.34;10523615;28;2299;-72
2023/01/20 21:15:13;;;;;;;;;;;-0.90;99.90;;;-1.95;100.00;95776.97;10522688;28;2303;-73
2023/01/20 21:20:16;;;;;;;;;;;-0.90;99.90;;;-1.97;100.00;95785.09;10528812;28;2279;-70
2023/01/20 21:25:22;;;;;;;;;;;-0.80;99.90;;;-2.07;100.00;95778.53;10528988;28;2340;-74
2023/01/20 21:30:25;;;;;;;;;;;-0.90;99.90;;;-2.06;100.00;95780.16;10528654;28;2356;-71
2023/01/20 21:35:28;;;;;;;;;;;-1.00;99.90;;;-2.15;100.00;95778.72;10524348;28;2339;-71
2023/01/20 21:40:31;;;;;;;;;;;-1.00;99.90;;;-2.13;100.00;95776.69;10531213;28;2336;-71
2023/01/20 21:45:36;;;;;;;;;;;-1.10;99.90;;;-2.10;100.00;95784.19;10521208;28;2461;-72
2023/01/20 21:55:59;;;;;;;;;;;-1.10;99.90;;;-2.11;100.00;95787.81;10520459;28;2416;-71
2023/01/20 22:01:01;;;;;;;;;;;-1.00;99.90;;;-1.99;100.00;95796.81;10526707;28;2294;-73
2023/01/20 22:06:04;;;;;;;;;;;-1.00;99.90;;;-1.95;100.00;95792.78;10522057;28;2310;-71
2023/01/20 22:11:07;;;;;;;;;;;-0.90;99.90;;;-2.02;100.00;95805.13;10509015;28;2345;-72
2023/01/20 22:16:09;;;;;;;;;;;-0.90;99.90;;;-2.00;100.00;95797.81;10518781;28;2390;-70
2023/01/20 22:21:12;;;;;;;;;;;-0.80;99.90;;;-2.01;100.00;95798.84;10527434;28;2342;-70
2023/01/20 22:26:15;;;;;;;;;;;-0.80;99.90;;;-2.03;100.00;95803.50;10535398;28;2272;-73
2023/01/20 22:31:18;;;;;;;;;;;-1.10;99.90;;;-2.08;100.00;95804.06;10526444;28;2314;-71
2023/01/20 22:36:21;;;;;;;;;;;-1.30;99.90;;;-2.11;100.00;95812.34;10531359;28;2339;-71
2023/01/20 22:41:25;;;;;;;;;;;-0.90;99.90;;;-2.14;100.00;95811.94;10522710;28;2358;-70
2023/01/20 22:46:28;;;;;;;;;;;-1.10;99.90;;;-2.11;100.00;95806.25;10510263;28;2313;-69
2023/01/20 22:51:30;;;;;;;;;;;-1.10;99.90;;;-2.08;100.00;95811.16;10527003;28;2291;-76
2023/01/20 22:56:33;;;;;;;;;;;-1.10;99.90;;;-2.13;100.00;95817.00;10528462;28;2273;-73
2023/01/20 23:01:36;;;;;;;;;;;-1.10;99.90;;;-2.19;100.00;95813.31;10519896;28;2349;-70
2023/01/20 23:06:39;;;;;;;;;;;-1.10;99.90;;;-2.15;100.00;95812.94;10527696;28;2357;-70
2023/01/20 23:11:41;;;;;;;;;;;-1.10;99.90;;;-2.18;100.00;95820.19;10523397;28;2341;-69
2023/01/20 23:16:44;;;;;;;;;;;-1.10;99.90;;;-2.25;100.00;95818.53;10523749;28;2333;-71
2023/01/20 23:21:47;;;;;;;;;;;-1.80;99.90;;;-2.10;100.00;95823.69;10521442;28;2728;-71
2023/01/20 23:26:49;;;;;;;;;;;-1.10;99.90;;;-2.13;100.00;95826.72;10523002;28;2268;-71
2023/01/20 23:31:54;;;;;;;;;;;-1.10;99.90;;;-2.15;100.00;95813.75;10527752;28;2278;-70
2023/01/20 23:36:57;;;;;;;;;;;-1.00;99.90;;;-2.22;100.00;95807.63;10524726;28;2297;-71
2023/01/20 23:42:00;;;;;;;;;;;-1.20;99.90;;;-2.21;100.00;95809.25;10524059;28;2362;-70
2023/01/20 23:47:06;;;;;;;;;;;-1.00;99.90;;;-2.23;100.00;95817.34;10525857;28;2314;-71